createdAt,value
2018-06-13T00:00:31.511Z,0.00
2018-06-13T00:01:31.506Z,0.00
2018-06-13T00:02:31.508Z,0.00
2018-06-13T00:03:31.504Z,0.00
2018-06-13T00:04:31.500Z,0.00
2018-06-13T00:05:31.500Z,0.00
2018-06-13T00:06:31.489Z,0.00
2018-06-13T00:07:31.516Z,0.00
2018-06-13T00:08:31.482Z,0.00
2018-06-13T00:09:31.479Z,0.00
2018-06-13T00:10:31.479Z,0.00
2018-06-13T00:11:31.477Z,0.00
2018-06-13T00:12:31.468Z,0.00
2018-06-13T00:13:31.465Z,0.00
2018-06-13T00:14:31.468Z,0.00
2018-06-13T00:15:31.464Z,0.00
2018-06-13T00:16:31.460Z,0.00
2018-06-13T00:17:31.455Z,0.00
2018-06-13T00:18:31.447Z,0.00
2018-06-13T00:19:31.519Z,0.00
2018-06-13T00:20:31.440Z,0.00
2018-06-13T00:21:31.444Z,0.00
2018-06-13T00:22:31.437Z,0.00
2018-06-13T00:23:31.436Z,0.00
2018-06-13T00:24:31.432Z,0.00
2018-06-13T00:25:31.425Z,0.00
2018-06-13T00:26:31.421Z,0.00
2018-06-13T00:27:31.416Z,0.00
2018-06-13T00:28:31.498Z,0.00
2018-06-13T00:29:31.412Z,0.00
2018-06-13T00:30:31.404Z,0.00
2018-06-13T00:31:31.400Z,0.00
2018-06-13T00:32:31.396Z,0.00
2018-06-13T00:33:31.394Z,0.00
2018-06-13T00:34:31.394Z,0.00
2018-06-13T00:35:31.391Z,0.00
2018-06-13T00:36:31.387Z,0.00
2018-06-13T00:37:31.383Z,0.00
2018-06-13T00:38:31.376Z,0.00
2018-06-13T00:39:31.372Z,0.00
2018-06-13T00:40:31.369Z,0.00
2018-06-13T00:41:31.364Z,0.00
2018-06-13T00:42:31.366Z,0.00
2018-06-13T00:43:31.364Z,0.00
2018-06-13T00:44:31.354Z,0.00
2018-06-13T00:45:31.351Z,0.00
2018-06-13T00:46:31.352Z,0.00
2018-06-13T00:47:31.347Z,0.00
2018-06-13T00:48:31.344Z,0.00
2018-06-13T00:49:31.340Z,0.00
2018-06-13T00:50:31.333Z,0.00
2018-06-13T00:51:31.328Z,0.00
2018-06-13T00:52:31.325Z,0.00
2018-06-13T00:53:31.321Z,0.00
2018-06-13T00:54:31.323Z,0.00
2018-06-13T00:55:31.318Z,0.00
2018-06-13T00:56:31.316Z,0.00
2018-06-13T00:57:31.313Z,0.00
2018-06-13T00:58:31.305Z,0.00
2018-06-13T00:59:31.300Z,0.00
2018-06-13T01:00:31.302Z,0.00
2018-06-13T01:01:31.299Z,0.00
2018-06-13T01:02:31.291Z,0.00
2018-06-13T01:03:31.293Z,0.00
2018-06-13T01:04:31.283Z,0.00
2018-06-13T01:05:31.279Z,0.00
2018-06-13T01:06:31.281Z,0.00
2018-06-13T01:07:31.276Z,0.00
2018-06-13T01:08:31.273Z,0.00
2018-06-13T01:09:31.269Z,0.00
2018-06-13T01:10:31.262Z,0.00
2018-06-13T01:11:31.258Z,0.00
2018-06-13T01:12:31.256Z,0.00
2018-06-13T01:13:31.251Z,0.00
2018-06-13T01:14:31.254Z,0.00
2018-06-13T01:15:31.248Z,0.00
2018-06-13T01:16:31.243Z,0.00
2018-06-13T01:17:31.237Z,0.00
2018-06-13T01:18:31.239Z,0.00
2018-06-13T01:19:31.235Z,0.00
2018-06-13T01:20:31.231Z,0.00
2018-06-13T01:21:31.229Z,0.00
2018-06-13T01:22:31.221Z,0.00
2018-06-13T01:23:31.216Z,0.00
2018-06-13T01:24:31.213Z,0.00
2018-06-13T01:25:31.209Z,0.00
2018-06-13T01:26:31.211Z,0.00
2018-06-13T01:27:31.207Z,0.00
2018-06-13T01:28:31.205Z,0.00
2018-06-13T01:29:31.202Z,0.00
2018-06-13T01:30:31.193Z,0.00
2018-06-13T01:31:31.189Z,0.00
2018-06-13T01:32:31.190Z,0.00
2018-06-13T01:33:31.189Z,0.00
2018-06-13T01:34:31.180Z,0.00
2018-06-13T01:35:31.176Z,0.00
2018-06-13T01:36:31.173Z,0.00
2018-06-13T01:37:31.170Z,0.00
2018-06-13T01:38:31.171Z,0.00
2018-06-13T01:39:31.166Z,0.00
2018-06-13T01:40:31.165Z,0.00
2018-06-13T01:41:31.162Z,0.00
2018-06-13T01:42:31.153Z,0.00
2018-06-13T01:43:31.152Z,0.00
2018-06-13T01:44:31.146Z,0.00
2018-06-13T01:45:31.143Z,0.00
2018-06-13T01:46:31.144Z,0.00
2018-06-13T01:47:31.141Z,0.00
2018-06-13T01:48:31.136Z,0.00
2018-06-13T01:49:31.129Z,0.00
2018-06-13T01:50:31.131Z,0.00
2018-06-13T01:51:31.127Z,0.00
2018-06-13T01:52:31.124Z,0.00
2018-06-13T01:53:31.122Z,0.00
2018-06-13T01:54:31.113Z,0.00
2018-06-13T01:55:31.109Z,0.00
2018-06-13T01:56:31.107Z,0.00
2018-06-13T01:57:31.104Z,0.00
2018-06-13T01:58:31.105Z,0.00
2018-06-13T01:59:31.102Z,0.00
2018-06-13T02:00:31.097Z,0.00
2018-06-13T02:01:31.096Z,0.00
2018-06-13T02:02:31.087Z,0.00
2018-06-13T02:03:31.083Z,0.00
2018-06-13T02:04:31.086Z,0.00
2018-06-13T02:05:31.083Z,0.00
2018-06-13T02:06:31.074Z,0.00
2018-06-13T02:07:31.071Z,0.00
2018-06-13T02:08:31.067Z,0.00
2018-06-13T02:09:31.065Z,0.00
2018-06-13T02:10:31.067Z,0.00
2018-06-13T02:11:31.064Z,0.00
2018-06-13T02:12:31.060Z,0.00
2018-06-13T02:13:31.057Z,0.00
2018-06-13T02:14:31.049Z,0.00
2018-06-13T02:15:31.046Z,0.00
2018-06-13T02:16:31.041Z,0.00
2018-06-13T02:17:31.039Z,0.00
2018-06-13T02:18:31.040Z,0.00
2018-06-13T02:19:31.036Z,0.00
2018-06-13T02:20:31.029Z,0.00
2018-06-13T02:21:31.029Z,0.00
2018-06-13T02:22:31.032Z,0.00
2018-06-13T02:23:31.022Z,0.00
2018-06-13T02:24:31.021Z,0.00
2018-06-13T02:25:31.020Z,0.00
2018-06-13T02:26:31.011Z,0.00
2018-06-13T02:27:31.006Z,0.00
2018-06-13T02:28:31.011Z,0.00
2018-06-13T02:29:31.000Z,0.00
2018-06-13T02:30:31.008Z,0.00
2018-06-13T02:31:30.998Z,0.00
2018-06-13T02:32:30.994Z,0.00
2018-06-13T02:33:30.992Z,0.00
2018-06-13T02:34:30.984Z,0.00
2018-06-13T02:35:30.979Z,0.00
2018-06-13T02:36:30.981Z,0.00
2018-06-13T02:37:30.978Z,0.00
2018-06-13T02:38:30.970Z,0.00
2018-06-13T02:39:30.967Z,0.00
2018-06-13T02:40:30.964Z,0.00
2018-06-13T02:41:30.961Z,0.00
2018-06-13T02:42:30.963Z,0.00
2018-06-13T02:43:30.958Z,0.00
2018-06-13T02:44:30.955Z,0.00
2018-06-13T02:45:30.952Z,0.00
2018-06-13T02:46:30.945Z,0.00
2018-06-13T02:47:30.943Z,0.00
2018-06-13T02:48:30.937Z,0.00
2018-06-13T02:49:30.935Z,0.00
2018-06-13T02:50:30.937Z,0.00
2018-06-13T02:51:30.933Z,0.00
2018-06-13T02:52:30.925Z,0.00
2018-06-13T02:53:30.923Z,0.00
2018-06-13T02:54:30.923Z,0.00
2018-06-13T02:55:30.921Z,0.00
2018-06-13T02:56:30.916Z,0.00
2018-06-13T02:57:30.913Z,0.00
2018-06-13T02:58:30.906Z,0.00
2018-06-13T02:59:30.902Z,0.00
2018-06-13T03:00:30.899Z,0.00
2018-06-13T03:01:30.895Z,0.00
2018-06-13T03:02:30.898Z,0.00
2018-06-13T03:03:30.892Z,0.00
2018-06-13T03:04:30.890Z,0.00
2018-06-13T03:05:30.889Z,0.00
2018-06-13T03:06:30.881Z,0.00
2018-06-13T03:07:30.876Z,0.00
2018-06-13T03:08:30.878Z,0.00
2018-06-13T03:09:30.875Z,0.00
2018-06-13T03:10:30.866Z,0.00
2018-06-13T03:11:30.864Z,0.00
2018-06-13T03:12:30.858Z,0.00
2018-06-13T03:13:30.856Z,0.00
2018-06-13T03:14:30.857Z,0.00
2018-06-13T03:15:30.857Z,0.00
2018-06-13T03:16:30.853Z,5.63
2018-06-13T03:17:30.847Z,5.63
2018-06-13T03:18:30.843Z,5.63
2018-06-13T03:19:30.835Z,5.63
2018-06-13T03:20:30.832Z,5.63
2018-06-13T03:21:30.830Z,5.63
2018-06-13T03:22:30.832Z,5.63
2018-06-13T03:23:30.827Z,5.63
2018-06-13T03:24:30.821Z,5.63
2018-06-13T03:25:30.816Z,5.63
2018-06-13T03:26:30.818Z,11.25
2018-06-13T03:27:30.815Z,11.25
2018-06-13T03:28:30.811Z,11.25
2018-06-13T03:29:30.808Z,11.25
2018-06-13T03:30:30.800Z,11.25
2018-06-13T03:31:30.797Z,11.25
2018-06-13T03:32:30.793Z,11.25
2018-06-13T03:33:30.790Z,11.25
2018-06-13T03:34:30.794Z,16.88
2018-06-13T03:35:30.788Z,16.88
2018-06-13T03:36:30.794Z,16.88
2018-06-13T03:37:30.782Z,16.88
2018-06-13T03:38:30.774Z,16.88
2018-06-13T03:39:30.770Z,16.88
2018-06-13T03:40:30.772Z,16.88
2018-06-13T03:41:30.770Z,22.50
2018-06-13T03:42:30.761Z,22.50
2018-06-13T03:43:30.759Z,22.50
2018-06-13T03:44:30.754Z,22.50
2018-06-13T03:45:30.751Z,28.13
2018-06-13T03:46:30.756Z,28.13
2018-06-13T03:47:30.747Z,28.13
2018-06-13T03:48:30.741Z,28.13
2018-06-13T03:49:30.738Z,28.13
2018-06-13T03:50:30.746Z,28.13
2018-06-13T03:51:30.735Z,28.13
2018-06-13T03:52:30.732Z,33.75
2018-06-13T03:53:30.729Z,33.75
2018-06-13T03:54:30.722Z,33.75
2018-06-13T03:55:30.718Z,33.75
2018-06-13T03:56:30.720Z,33.75
2018-06-13T03:57:30.717Z,39.38
2018-06-13T03:58:30.712Z,39.38
2018-06-13T03:59:30.705Z,33.75
2018-06-13T04:00:30.704Z,33.75
2018-06-13T04:01:30.700Z,33.75
2018-06-13T04:02:30.704Z,33.75
2018-06-13T04:03:30.700Z,33.75
2018-06-13T04:04:30.695Z,33.75
2018-06-13T04:05:30.696Z,39.38
2018-06-13T04:06:30.687Z,39.38
2018-06-13T04:07:30.683Z,39.38
2018-06-13T04:08:30.678Z,45.00
2018-06-13T04:09:30.677Z,45.00
2018-06-13T04:10:30.677Z,45.00
2018-06-13T04:11:30.672Z,50.63
2018-06-13T04:12:30.666Z,50.63
2018-06-13T04:13:30.663Z,50.63
2018-06-13T04:14:30.664Z,50.63
2018-06-13T04:15:30.661Z,56.25
2018-06-13T04:16:30.659Z,56.25
2018-06-13T04:17:30.656Z,56.25
2018-06-13T04:18:30.647Z,61.88
2018-06-13T04:19:30.644Z,61.88
2018-06-13T04:20:30.642Z,67.50
2018-06-13T04:21:30.638Z,67.50
2018-06-13T04:22:30.672Z,73.13
2018-06-13T04:23:30.637Z,73.13
2018-06-13T04:24:30.632Z,78.75
2018-06-13T04:25:30.631Z,78.75
2018-06-13T04:26:30.624Z,84.38
2018-06-13T04:27:30.619Z,90.00
2018-06-13T04:28:30.621Z,95.63
2018-06-13T04:29:30.617Z,101.25
2018-06-13T04:30:30.612Z,106.88
2018-06-13T04:31:30.607Z,118.13
2018-06-13T04:32:30.604Z,129.38
2018-06-13T04:33:30.602Z,151.88
2018-06-13T04:34:30.605Z,157.50
2018-06-13T04:35:30.602Z,146.25
2018-06-13T04:36:30.598Z,135.00
2018-06-13T04:37:30.595Z,135.00
2018-06-13T04:38:30.588Z,135.00
2018-06-13T04:39:30.584Z,140.63
2018-06-13T04:40:30.581Z,146.25
2018-06-13T04:41:30.579Z,146.25
2018-06-13T04:42:30.580Z,140.63
2018-06-13T04:43:30.577Z,146.25
2018-06-13T04:44:30.570Z,168.75
2018-06-13T04:45:30.567Z,185.63
2018-06-13T04:46:30.571Z,168.75
2018-06-13T04:47:30.565Z,196.88
2018-06-13T04:48:30.563Z,236.25
2018-06-13T04:49:30.561Z,275.63
2018-06-13T04:50:30.552Z,236.25
2018-06-13T04:51:30.548Z,208.13
2018-06-13T04:52:30.545Z,230.63
2018-06-13T04:53:30.543Z,292.50
2018-06-13T04:54:30.545Z,410.63
2018-06-13T04:55:30.542Z,427.50
2018-06-13T04:56:30.539Z,371.25
2018-06-13T04:57:30.538Z,360.00
2018-06-13T04:58:30.530Z,241.88
2018-06-13T04:59:30.528Z,247.50
2018-06-13T05:00:30.530Z,236.25
2018-06-13T05:01:30.527Z,247.50
2018-06-13T05:02:30.521Z,281.25
2018-06-13T05:03:30.520Z,298.13
2018-06-13T05:04:30.516Z,292.50
2018-06-13T05:05:30.514Z,270.00
2018-06-13T05:06:30.517Z,253.13
2018-06-13T05:07:30.513Z,230.63
2018-06-13T05:08:30.512Z,225.00
2018-06-13T05:09:30.509Z,213.75
2018-06-13T05:10:30.503Z,202.50
2018-06-13T05:11:30.500Z,196.88
2018-06-13T05:12:30.498Z,196.88
2018-06-13T05:13:30.496Z,196.88
2018-06-13T05:14:30.500Z,196.88
2018-06-13T05:15:30.496Z,191.25
2018-06-13T05:16:30.489Z,196.88
2018-06-13T05:17:30.487Z,191.25
2018-06-13T05:18:30.491Z,196.88
2018-06-13T05:19:30.488Z,196.88
2018-06-13T05:20:30.485Z,191.25
2018-06-13T05:21:30.483Z,191.25
2018-06-13T05:22:30.479Z,191.25
2018-06-13T05:23:30.474Z,196.88
2018-06-13T05:24:30.471Z,208.13
2018-06-13T05:25:30.470Z,208.13
2018-06-13T05:26:30.474Z,208.13
2018-06-13T05:27:30.470Z,202.50
2018-06-13T05:28:30.468Z,196.88
2018-06-13T05:29:30.467Z,196.88
2018-06-13T05:30:30.459Z,196.88
2018-06-13T05:31:30.457Z,196.88
2018-06-13T05:32:30.460Z,202.50
2018-06-13T05:33:30.458Z,213.75
2018-06-13T05:34:30.509Z,225.00
2018-06-13T05:35:30.448Z,225.00
2018-06-13T05:36:30.446Z,225.00
2018-06-13T05:37:30.444Z,230.63
2018-06-13T05:38:30.447Z,236.25
2018-06-13T05:39:30.444Z,241.88
2018-06-13T05:40:30.442Z,258.75
2018-06-13T05:41:30.441Z,270.00
2018-06-13T05:42:30.434Z,292.50
2018-06-13T05:43:30.431Z,303.75
2018-06-13T05:44:30.430Z,320.63
2018-06-13T05:45:30.431Z,331.88
2018-06-13T05:46:30.431Z,331.88
2018-06-13T05:47:30.428Z,337.50
2018-06-13T05:48:30.421Z,343.13
2018-06-13T05:49:30.419Z,360.00
2018-06-13T05:50:30.423Z,371.25
2018-06-13T05:51:30.421Z,365.63
2018-06-13T05:52:30.417Z,348.75
2018-06-13T05:53:30.416Z,348.75
2018-06-13T05:54:30.412Z,365.63
2018-06-13T05:55:30.413Z,365.63
2018-06-13T05:56:30.406Z,365.63
2018-06-13T05:57:30.406Z,376.88
2018-06-13T05:58:30.408Z,388.13
2018-06-13T05:59:30.405Z,393.75
2018-06-13T06:00:30.404Z,388.13
2018-06-13T06:01:30.476Z,388.13
2018-06-13T06:02:30.396Z,388.13
2018-06-13T06:03:30.393Z,393.75
2018-06-13T06:04:30.396Z,405.00
2018-06-13T06:05:30.395Z,421.88
2018-06-13T06:06:30.388Z,461.25
2018-06-13T06:07:30.386Z,483.75
2018-06-13T06:08:30.385Z,489.38
2018-06-13T06:09:30.384Z,472.50
2018-06-13T06:10:30.556Z,466.88
2018-06-13T06:11:30.386Z,421.88
2018-06-13T06:12:30.389Z,421.88
2018-06-13T06:13:30.384Z,444.38
2018-06-13T06:14:30.378Z,416.25
2018-06-13T06:15:30.375Z,433.13
2018-06-13T06:16:30.375Z,466.88
2018-06-13T06:17:30.374Z,427.50
2018-06-13T06:18:30.377Z,376.88
2018-06-13T06:19:30.375Z,382.50
2018-06-13T06:20:30.372Z,421.88
2018-06-13T06:21:30.369Z,427.50
2018-06-13T06:22:30.373Z,410.63
2018-06-13T06:23:30.428Z,376.88
2018-06-13T06:24:30.372Z,337.50
2018-06-13T06:25:30.372Z,315.00
2018-06-13T06:26:30.365Z,315.00
2018-06-13T06:27:30.364Z,320.63
2018-06-13T06:28:30.365Z,382.50
2018-06-13T06:29:30.362Z,433.13
2018-06-13T06:30:30.365Z,478.13
2018-06-13T06:31:30.363Z,517.50
2018-06-13T06:32:30.365Z,545.63
2018-06-13T06:33:30.363Z,573.75
2018-06-13T06:34:30.357Z,596.25
2018-06-13T06:35:30.355Z,613.13
2018-06-13T06:36:30.360Z,635.63
2018-06-13T06:37:30.359Z,669.38
2018-06-13T06:38:30.355Z,686.25
2018-06-13T06:39:30.352Z,691.88
2018-06-13T06:40:30.353Z,691.88
2018-06-13T06:41:30.351Z,691.88
2018-06-13T06:42:30.355Z,691.88
2018-06-13T06:43:30.355Z,686.25
2018-06-13T06:44:30.359Z,658.13
2018-06-13T06:45:30.355Z,630.00
2018-06-13T06:46:30.350Z,630.00
2018-06-13T06:47:30.348Z,686.25
2018-06-13T06:48:30.349Z,675.00
2018-06-13T06:49:30.349Z,613.13
2018-06-13T06:50:30.352Z,528.75
2018-06-13T06:51:30.352Z,466.88
2018-06-13T06:52:30.348Z,427.50
2018-06-13T06:53:30.347Z,410.63
2018-06-13T06:54:30.352Z,399.38
2018-06-13T06:55:30.380Z,416.25
2018-06-13T06:56:30.353Z,365.63
2018-06-13T06:57:30.352Z,382.50
2018-06-13T06:58:30.348Z,427.50
2018-06-13T06:59:30.346Z,511.88
2018-06-13T07:00:30.346Z,585.00
2018-06-13T07:01:30.347Z,596.25
2018-06-13T07:02:30.352Z,562.50
2018-06-13T07:03:30.350Z,500.63
2018-06-13T07:04:30.350Z,427.50
2018-06-13T07:05:30.351Z,365.63
2018-06-13T07:06:30.346Z,315.00
2018-06-13T07:07:30.345Z,264.38
2018-06-13T07:08:30.351Z,236.25
2018-06-13T07:09:30.350Z,208.13
2018-06-13T07:10:30.346Z,180.00
2018-06-13T07:11:30.545Z,157.50
2018-06-13T07:12:30.345Z,151.88
2018-06-13T07:13:30.344Z,129.38
2018-06-13T07:14:30.350Z,112.50
2018-06-13T07:15:30.346Z,101.25
2018-06-13T07:16:30.346Z,101.25
2018-06-13T07:17:30.346Z,118.13
2018-06-13T07:18:30.342Z,129.38
2018-06-13T07:19:30.341Z,123.75
2018-06-13T07:20:30.341Z,118.13
2018-06-13T07:21:30.340Z,123.75
2018-06-13T07:22:30.344Z,112.50
2018-06-13T07:23:30.341Z,101.25
2018-06-13T07:24:30.338Z,90.00
2018-06-13T07:25:30.335Z,78.75
2018-06-13T07:26:30.340Z,78.75
2018-06-13T07:27:30.337Z,90.00
2018-06-13T07:28:30.336Z,101.25
2018-06-13T07:29:30.336Z,101.25
2018-06-13T07:30:30.330Z,95.63
2018-06-13T07:31:30.328Z,123.75
2018-06-13T07:32:30.327Z,168.75
2018-06-13T07:33:30.325Z,196.88
2018-06-13T07:34:30.328Z,213.75
2018-06-13T07:35:30.326Z,219.38
2018-06-13T07:36:30.327Z,230.63
2018-06-13T07:37:30.325Z,236.25
2018-06-13T07:38:30.319Z,241.88
2018-06-13T07:39:30.316Z,241.88
2018-06-13T07:40:30.320Z,225.00
2018-06-13T07:41:30.367Z,208.13
2018-06-13T07:42:30.312Z,185.63
2018-06-13T07:43:30.310Z,157.50
2018-06-13T07:44:30.308Z,135.00
2018-06-13T07:45:30.308Z,123.75
2018-06-13T07:46:30.310Z,129.38
2018-06-13T07:47:30.308Z,140.63
2018-06-13T07:48:30.307Z,140.63
2018-06-13T07:49:30.304Z,140.63
2018-06-13T07:50:30.298Z,140.63
2018-06-13T07:51:30.296Z,135.00
2018-06-13T07:52:30.300Z,129.38
2018-06-13T07:53:30.296Z,123.75
2018-06-13T07:54:30.299Z,140.63
2018-06-13T07:55:30.295Z,157.50
2018-06-13T07:56:30.288Z,185.63
2018-06-13T07:57:30.286Z,236.25
2018-06-13T07:58:30.290Z,270.00
2018-06-13T07:59:30.287Z,309.38
2018-06-13T08:00:30.287Z,326.25
2018-06-13T08:01:30.283Z,348.75
2018-06-13T08:02:30.278Z,354.38
2018-06-13T08:03:30.276Z,354.38
2018-06-13T08:04:30.273Z,348.75
2018-06-13T08:05:30.272Z,348.75
2018-06-13T08:06:30.274Z,354.38
2018-06-13T08:07:30.272Z,365.63
2018-06-13T08:08:30.381Z,371.25
2018-06-13T08:09:30.271Z,360.00
2018-06-13T08:10:30.264Z,343.13
2018-06-13T08:11:30.261Z,326.25
2018-06-13T08:12:30.266Z,320.63
2018-06-13T08:13:30.264Z,320.63
2018-06-13T08:14:30.258Z,309.38
2018-06-13T08:15:30.256Z,298.13
2018-06-13T08:16:30.255Z,281.25
2018-06-13T08:17:30.255Z,258.75
2018-06-13T08:18:30.257Z,236.25
2018-06-13T08:19:30.255Z,230.63
2018-06-13T08:20:30.254Z,225.00
2018-06-13T08:21:30.253Z,213.75
2018-06-13T08:22:30.247Z,196.88
2018-06-13T08:23:30.246Z,185.63
2018-06-13T08:24:30.244Z,174.38
2018-06-13T08:25:30.248Z,185.63
2018-06-13T08:26:30.251Z,208.13
2018-06-13T08:27:30.249Z,225.00
2018-06-13T08:28:30.240Z,191.25
2018-06-13T08:29:30.239Z,163.13
2018-06-13T08:30:30.242Z,151.88
2018-06-13T08:31:30.240Z,140.63
2018-06-13T08:32:30.238Z,135.00
2018-06-13T08:33:30.238Z,157.50
2018-06-13T08:34:30.232Z,168.75
2018-06-13T08:35:30.230Z,191.25
2018-06-13T08:36:30.228Z,213.75
2018-06-13T08:37:30.228Z,202.50
2018-06-13T08:38:30.232Z,185.63
2018-06-13T08:39:30.230Z,185.63
2018-06-13T08:40:30.229Z,213.75
2018-06-13T08:41:30.228Z,247.50
2018-06-13T08:42:30.223Z,275.63
2018-06-13T08:43:30.220Z,275.63
2018-06-13T08:44:30.224Z,264.38
2018-06-13T08:45:30.222Z,281.25
2018-06-13T08:46:30.217Z,315.00
2018-06-13T08:47:30.214Z,331.88
2018-06-13T08:48:30.267Z,331.88
2018-06-13T08:49:30.215Z,326.25
2018-06-13T08:50:30.215Z,360.00
2018-06-13T08:51:30.214Z,399.38
2018-06-13T08:52:30.212Z,405.00
2018-06-13T08:53:30.213Z,393.75
2018-06-13T08:54:30.207Z,382.50
2018-06-13T08:55:30.203Z,371.25
2018-06-13T08:56:30.202Z,354.38
2018-06-13T08:57:30.202Z,337.50
2018-06-13T08:58:30.206Z,331.88
2018-06-13T08:59:30.204Z,320.63
2018-06-13T09:00:30.197Z,315.00
2018-06-13T09:01:30.197Z,315.00
2018-06-13T09:02:30.201Z,309.38
2018-06-13T09:03:30.201Z,292.50
2018-06-13T09:04:30.197Z,298.13
2018-06-13T09:05:30.197Z,309.38
2018-06-13T09:06:30.192Z,320.63
2018-06-13T09:07:30.192Z,303.75
2018-06-13T09:08:30.191Z,286.88
2018-06-13T09:09:30.189Z,270.00
2018-06-13T09:10:30.195Z,275.63
2018-06-13T09:11:30.192Z,275.63
2018-06-13T09:12:30.195Z,270.00
2018-06-13T09:13:30.191Z,253.13
2018-06-13T09:14:30.184Z,241.88
2018-06-13T09:15:30.182Z,241.88
2018-06-13T09:16:30.186Z,225.00
2018-06-13T09:17:30.186Z,225.00
2018-06-13T09:18:30.181Z,236.25
2018-06-13T09:19:30.178Z,219.38
2018-06-13T09:20:30.177Z,225.00
2018-06-13T09:21:30.176Z,241.88
2018-06-13T09:22:30.236Z,258.75
2018-06-13T09:23:30.178Z,270.00
2018-06-13T09:24:30.179Z,275.63
2018-06-13T09:25:30.177Z,303.75
2018-06-13T09:26:30.171Z,348.75
2018-06-13T09:27:30.171Z,376.88
2018-06-13T09:28:30.169Z,399.38
2018-06-13T09:29:30.168Z,388.13
2018-06-13T09:30:30.171Z,388.13
2018-06-13T09:31:30.170Z,410.63
2018-06-13T09:32:30.164Z,399.38
2018-06-13T09:33:30.164Z,399.38
2018-06-13T09:34:30.166Z,405.00
2018-06-13T09:35:30.166Z,399.38
2018-06-13T09:36:30.165Z,410.63
2018-06-13T09:37:30.290Z,455.63
2018-06-13T09:38:30.159Z,506.25
2018-06-13T09:39:30.156Z,562.50
2018-06-13T09:40:30.156Z,590.63
2018-06-13T09:41:30.156Z,607.50
2018-06-13T09:42:30.159Z,641.25
2018-06-13T09:43:30.161Z,675.00
2018-06-13T09:44:30.157Z,703.13
2018-06-13T09:45:30.156Z,675.00
2018-06-13T09:46:30.151Z,613.13
2018-06-13T09:47:30.149Z,613.13
2018-06-13T09:48:30.156Z,708.75
2018-06-13T09:49:30.156Z,759.38
2018-06-13T09:50:30.152Z,714.38
2018-06-13T09:51:30.149Z,686.25
2018-06-13T09:52:30.150Z,686.25
2018-06-13T09:53:30.149Z,675.00
2018-06-13T09:54:30.155Z,630.00
2018-06-13T09:55:30.155Z,551.25
2018-06-13T09:56:30.156Z,495.00
2018-06-13T09:57:30.158Z,483.75
2018-06-13T09:58:30.152Z,523.13
2018-06-13T09:59:30.151Z,590.63
2018-06-13T10:00:30.150Z,658.13
2018-06-13T10:01:30.152Z,736.88
2018-06-13T10:02:30.158Z,838.13
2018-06-13T10:03:30.157Z,961.88
2018-06-13T10:04:30.195Z,1074.38
2018-06-13T10:05:30.155Z,1096.88
2018-06-13T10:06:30.160Z,1051.88
2018-06-13T10:07:30.159Z,967.50
2018-06-13T10:08:30.163Z,877.50
2018-06-13T10:09:30.162Z,781.88
2018-06-13T10:10:30.159Z,658.13
2018-06-13T10:11:30.160Z,556.88
2018-06-13T10:12:30.161Z,478.13
2018-06-13T10:13:30.163Z,405.00
2018-06-13T10:14:30.170Z,337.50
2018-06-13T10:15:30.169Z,298.13
2018-06-13T10:16:30.172Z,264.38
2018-06-13T10:17:30.174Z,241.88
2018-06-13T10:18:30.171Z,225.00
2018-06-13T10:19:30.171Z,202.50
2018-06-13T10:20:30.176Z,180.00
2018-06-13T10:21:30.179Z,174.38
2018-06-13T10:22:30.174Z,168.75
2018-06-13T10:23:30.175Z,157.50
2018-06-13T10:24:30.175Z,157.50
2018-06-13T10:25:30.236Z,146.25
2018-06-13T10:26:30.181Z,135.00
2018-06-13T10:27:30.181Z,135.00
2018-06-13T10:28:30.183Z,135.00
2018-06-13T10:29:30.183Z,146.25
2018-06-13T10:30:30.179Z,157.50
2018-06-13T10:31:30.179Z,168.75
2018-06-13T10:32:30.178Z,180.00
2018-06-13T10:33:30.180Z,191.25
2018-06-13T10:34:30.186Z,213.75
2018-06-13T10:35:30.185Z,236.25
2018-06-13T10:36:30.180Z,253.13
2018-06-13T10:37:30.180Z,264.38
2018-06-13T10:38:30.185Z,270.00
2018-06-13T10:39:30.184Z,270.00
2018-06-13T10:40:30.182Z,270.00
2018-06-13T10:41:30.183Z,286.88
2018-06-13T10:42:30.177Z,309.38
2018-06-13T10:43:30.177Z,326.25
2018-06-13T10:44:30.188Z,371.25
2018-06-13T10:45:30.176Z,371.25
2018-06-13T10:46:30.180Z,365.63
2018-06-13T10:47:30.179Z,382.50
2018-06-13T10:48:30.221Z,376.88
2018-06-13T10:49:30.179Z,410.63
2018-06-13T10:50:30.174Z,472.50
2018-06-13T10:51:30.172Z,540.00
2018-06-13T10:52:30.176Z,601.88
2018-06-13T10:53:30.178Z,646.88
2018-06-13T10:54:30.172Z,663.75
2018-06-13T10:55:30.194Z,658.13
2018-06-13T10:56:30.170Z,630.00
2018-06-13T10:57:30.170Z,568.13
2018-06-13T10:58:30.175Z,540.00
2018-06-13T10:59:30.175Z,540.00
2018-06-13T11:00:30.178Z,540.00
2018-06-13T11:01:30.173Z,551.25
2018-06-13T11:02:30.169Z,528.75
2018-06-13T11:03:30.171Z,483.75
2018-06-13T11:04:30.170Z,444.38
2018-06-13T11:05:30.169Z,399.38
2018-06-13T11:06:30.190Z,371.25
2018-06-13T11:07:30.178Z,348.75
2018-06-13T11:08:30.170Z,326.25
2018-06-13T11:09:30.174Z,303.75
2018-06-13T11:10:30.174Z,286.88
2018-06-13T11:11:30.174Z,275.63
2018-06-13T11:12:30.173Z,275.63
2018-06-13T11:13:30.174Z,258.75
2018-06-13T11:14:30.170Z,236.25
2018-06-13T11:15:30.169Z,219.38
2018-06-13T11:16:30.178Z,219.38
2018-06-13T11:17:30.170Z,230.63
2018-06-13T11:18:30.176Z,247.50
2018-06-13T11:19:30.175Z,264.38
2018-06-13T11:20:30.174Z,275.63
2018-06-13T11:21:30.174Z,286.88
2018-06-13T11:22:30.169Z,292.50
2018-06-13T11:23:30.169Z,298.13
2018-06-13T11:24:30.172Z,298.13
2018-06-13T11:25:30.172Z,286.88
2018-06-13T11:26:30.172Z,281.25
2018-06-13T11:27:30.167Z,270.00
2018-06-13T11:28:30.168Z,264.38
2018-06-13T11:29:30.167Z,275.63
2018-06-13T11:30:30.172Z,309.38
2018-06-13T11:31:30.234Z,315.00
2018-06-13T11:32:30.169Z,326.25
2018-06-13T11:33:30.169Z,326.25
2018-06-13T11:34:30.165Z,337.50
2018-06-13T11:35:30.164Z,365.63
2018-06-13T11:36:30.163Z,382.50
2018-06-13T11:37:30.162Z,405.00
2018-06-13T11:38:30.166Z,438.75
2018-06-13T11:39:30.165Z,472.50
2018-06-13T11:40:30.160Z,523.13
2018-06-13T11:41:30.206Z,573.75
2018-06-13T11:42:30.164Z,624.38
2018-06-13T11:43:30.165Z,663.75
2018-06-13T11:44:30.167Z,708.75
2018-06-13T11:45:30.164Z,759.38
2018-06-13T11:46:30.159Z,810.00
2018-06-13T11:47:30.157Z,849.38
2018-06-13T11:48:30.158Z,911.25
2018-06-13T11:49:30.158Z,950.63
2018-06-13T11:50:30.163Z,961.88
2018-06-13T11:51:30.163Z,990.00
2018-06-13T11:52:30.165Z,1035.00
2018-06-13T11:53:30.182Z,1096.88
2018-06-13T11:54:30.159Z,1158.75
2018-06-13T11:55:30.159Z,1186.88
2018-06-13T11:56:30.170Z,1220.63
2018-06-13T11:57:30.165Z,1321.88
2018-06-13T11:58:30.162Z,1366.88
2018-06-13T11:59:30.162Z,1372.50
2018-06-13T12:00:30.179Z,1338.75
2018-06-13T12:01:30.166Z,1383.75
2018-06-13T12:02:30.174Z,1366.88
2018-06-13T12:03:30.174Z,1265.63
2018-06-13T12:04:30.176Z,1051.88
2018-06-13T12:05:30.180Z,911.25
2018-06-13T12:06:30.176Z,810.00
2018-06-13T12:07:30.178Z,714.38
2018-06-13T12:08:30.183Z,641.25
2018-06-13T12:09:30.187Z,573.75
2018-06-13T12:10:30.191Z,534.38
2018-06-13T12:11:30.243Z,517.50
2018-06-13T12:12:30.191Z,478.13
2018-06-13T12:13:30.193Z,450.00
2018-06-13T12:14:30.202Z,433.13
2018-06-13T12:15:30.204Z,410.63
2018-06-13T12:16:30.208Z,405.00
2018-06-13T12:17:30.209Z,393.75
2018-06-13T12:18:30.207Z,388.13
2018-06-13T12:19:30.212Z,388.13
2018-06-13T12:20:30.212Z,388.13
2018-06-13T12:21:30.214Z,388.13
2018-06-13T12:22:30.230Z,393.75
2018-06-13T12:23:30.223Z,410.63
2018-06-13T12:24:30.225Z,427.50
2018-06-13T12:25:30.229Z,461.25
2018-06-13T12:26:30.224Z,483.75
2018-06-13T12:27:30.226Z,517.50
2018-06-13T12:28:30.255Z,545.63
2018-06-13T12:29:30.237Z,562.50
2018-06-13T12:30:30.231Z,630.00
2018-06-13T12:31:30.233Z,691.88
2018-06-13T12:32:30.234Z,753.75
2018-06-13T12:33:30.235Z,804.38
2018-06-13T12:34:30.242Z,860.63
2018-06-13T12:35:30.242Z,900.00
2018-06-13T12:36:30.244Z,961.88
2018-06-13T12:37:30.253Z,1006.88
2018-06-13T12:38:30.243Z,1029.38
2018-06-13T12:39:30.245Z,1057.50
2018-06-13T12:40:30.246Z,1046.25
2018-06-13T12:41:30.248Z,1023.75
2018-06-13T12:42:30.254Z,877.50